Nephi, UT

10:17 AM MDT on July 31, 2015 (GMT -0600)
MesoWest | | Change Station
CLOSE
Current Station
Personal Weather Station
Location: Nephi, UT
Elevation: 5001 ft
Nearby Weather Stations

Elev 5001 ft 39.69 °N, 111.88 °W | Updated 32 minutes ago

Clear
Clear
74 °F
Feels Like 76 °F
N
1
Wind Variable Wind from East
Gusts 3.0 mph

Today
High -- | Low -- °F
--% Chance of Precip.
Yesterday
High -- | Low -- °F
Precip. -- in
6:25 AM 8:41 PM
Full, 100% visible
Pressure 30.29 in
Visibility 15.0 miles
Clouds Few 14000 ft
Heat Index 76 °F
Dew Point 30 °F
Humidity 20%
Rainfall in
Snow Depth Not available.
UV 5 out of 12
Pollen 6.00 out of 12
Air Quality Not available.
Flu Activity Not available.
METAR KPVU 311549Z 00000KT 15SM FEW140 21/03 A3029

More Conditions Fewer Conditions

Pressure 30.29 in
Visibility 15.0 miles
Clouds Few 14000 ft
Heat Index 76 °F
Dew Point 30 °F
Humidity 20%
Rainfall in
Snow Depth Not available.
UV 5 out of 12
Pollen 6.00 out of 12
Air Quality Not available.
Flu Activity Not available.
METAR KPVU 311549Z 00000KT 15SM FEW140 21/03 A3029

More Conditions Fewer Conditions

10-Day Weather Forecast

×

Almanac

Astronomy

Jul. 31, 2015 Rise Set
Actual Time
Civil Twilight
Nautical Twilight
Astronomical Twilight
Moon
Length of Visible Light
Length of Day
Tomorrow will be .
, % of the Moon is Illuminated

Today's Extremes

State Highs State Lows

Community

WunderPhotos

Upload Photos

1,842,685 photos uploaded!

WunderBlogs® & News

Nearby

Air Quality

  Air Quality AQ Index Pollutant
Not available.

Snow Depth

Station Depth Elevation

Earthquake Activity

City Distance Mag. Time & Date
Minimum magnitude displayed is 2.5.

Coastal Water Temperatures

Place Temperature

Stations

Nearby Weather Stations

Station Location Temp. Windchill Dew Point Humidity Wind Precip. Elev Updated Type